Aviation Digital Data Service (ADDS)

Output produced by METARs form (1740 UTC 21 April 2018)
found at http://aviationweather.gov/adds/metars/
 
LHPP 211645Z 16005KT CAVOK 21/07 Q1018
LHPP 211615Z 17004KT CAVOK 22/05 Q1019
LHPP 211545Z 17003KT CAVOK 23/04 Q1019
LHPP 211515Z 22003G14KT CAVOK 24/04 Q1019
LHPP 211445Z 18004KT CAVOK 23/03 Q1020
LHPP 211415Z 24003KT CAVOK 24/04 Q1020
LHPP 211345Z 28003KT CAVOK 23/02 Q1020
LHPP 211315Z 26004KT CAVOK 23/03 Q1021
LHPP 211245Z 22003KT CAVOK 23/04 Q1021
LHPP 211215Z 14002KT CAVOK 23/02 Q1021
LHPP 211145Z 29002KT CAVOK 22/05 Q1022